METAR Formatted Surface Weather Observation
Issued by NWS

Home | Current Version | Previous Version | Text Only | Print | Product List | Glossary On
Versions: 1 2 3 4 5 6 7 8 9 10 11 12 13 14 15 16 17 18 19 20 21 22 23 24 25 26 27 28 29 30
327
SAUS42 KJAX 110604 COR
MTRNPA
METAR KNPA 110556Z AUTO 26005KT 10SM CLR 09/02 A3020 RMK AO2 SLP227
T00940017 10094 20028 401171011 58014



USA.gov is the U.S. government's official web portal to all federal, state and local government web resources and services.